Hallandale Beach, Florida
Current Conditions -  °F | °C
As of 10:53 AM on Saturday 20 Dec 2014 (Local Time) from KHWO Reporting Station
Few Clouds Few Clouds  
Wind Chill: 78°   Ceiling: Unl
Heat Index: 79°   Visibility: 10mi
Dew Point: 60°   Wind: 10mph
Humidity: 54%   Direction: 150°SSE
Pressure: 30.12"   Gusts: NA
Location:  25.9859°N, 80.1469°W
Report Text: KHWO 201553Z 15009KT 10SM FEW037 26/16 A3012 RMK AO2 SLP198 T02560156
Loading
Personal Weather Stations






























Interactive Weather Map New forecast layout! Learn more

10-Day Weather Forecast

Advertisements
Track Severe Weather on mobile